Time;durP1;ratioP1;P1;durP2;ratioP2;P2;SDS_P1;SDS_P2;PMS_P1;PMS_P2;Temp;Humidity;BMP_temperature;BMP_pressure;BME280_temperature;BME280_humidity;BME280_pressure;Samples;Min_cycle;Max_cycle;Signal;HPM_P1;HPM_P2
2022/06/08 00:00:44;;;;;;;10.07;9.50;;;;;;;15.28;80.21;92449.44;5979471;24;20268;-76
2022/06/08 00:03:14;;;;;;;9.67;9.07;;;;;;;15.29;80.78;92463.34;5982382;24;20164;-76
2022/06/08 00:05:40;;;;;;;10.90;10.13;;;;;;;15.06;81.02;92430.41;5979812;24;20203;-75
2022/06/08 00:08:05;;;;;;;10.83;10.23;;;;;;;15.04;80.87;92432.56;5982560;24;20160;-76
2022/06/08 00:10:31;;;;;;;10.23;9.73;;;;;;;15.18;80.73;92457.63;5972890;24;20222;-76
2022/06/08 00:12:56;;;;;;;10.80;10.20;;;;;;;15.19;80.78;92447.91;5981820;24;20179;-76
2022/06/08 00:15:22;;;;;;;10.90;10.17;;;;;;;15.16;80.30;92438.00;5980628;24;20159;-76
2022/06/08 00:17:48;;;;;;;10.47;9.93;;;;;;;15.25;79.82;92439.53;5948637;24;20166;-76
2022/06/08 00:20:14;;;;;;;10.37;9.80;;;;;;;15.17;81.17;92444.81;5981545;24;20174;-75
2022/06/08 00:22:40;;;;;;;10.30;9.80;;;;;;;15.27;81.00;92449.75;5982366;24;20164;-75
2022/06/08 00:25:07;;;;;;;10.80;10.20;;;;;;;15.09;81.17;92427.94;5984169;24;20251;-74
2022/06/08 00:27:32;;;;;;;10.00;9.50;;;;;;;15.30;80.84;92454.41;5945557;24;20204;-75
2022/06/08 00:29:58;;;;;;;10.30;9.80;;;;;;;15.15;81.32;92425.91;5956143;24;20187;-75
2022/06/08 00:32:24;;;;;;;10.10;9.57;;;;;;;15.20;81.37;92438.91;5946438;24;20211;-75
2022/06/08 00:34:49;;;;;;;10.87;10.37;;;;;;;15.13;82.40;92433.38;5956009;24;20176;-75
2022/06/08 00:37:14;;;;;;;10.33;9.73;;;;;;;15.06;82.53;92436.44;5971289;24;20274;-75
2022/06/08 00:39:40;;;;;;;10.63;10.13;;;;;;;15.02;82.79;92446.03;5983958;24;20241;-75
2022/06/08 00:42:08;;;;;;;11.63;11.03;;;;;;;15.22;79.80;92450.66;5975658;24;20280;-76
2022/06/08 00:44:34;;;;;;;11.07;10.47;;;;;;;15.17;80.44;92447.44;5983352;24;20179;-76
2022/06/08 00:47:02;;;;;;;11.10;10.47;;;;;;;14.86;80.76;92438.91;5949615;24;20290;-75
2022/06/08 00:49:32;;;;;;;11.60;10.73;;;;;;;14.80;81.68;92440.91;5983192;24;20151;-77
2022/06/08 00:52:00;;;;;;;10.80;10.20;;;;;;;14.59;81.90;92418.16;5976572;24;20216;-75
2022/06/08 00:54:31;;;;;;;10.93;10.33;;;;;;;14.79;81.98;92446.47;5983899;24;20167;-75
2022/06/08 00:57:10;;;;;;;11.50;10.80;;;;;;;14.93;82.26;92447.09;5976239;24;20207;-75
2022/06/08 00:59:47;;;;;;;10.63;10.13;;;;;;;14.90;82.70;92439.81;5983762;24;20178;-74
2022/06/08 01:02:12;;;;;;;10.63;9.93;;;;;;;14.90;83.26;92455.59;5975180;24;20207;-74
2022/06/08 01:04:38;;;;;;;10.33;9.80;;;;;;;14.82;83.41;92456.38;5983712;24;20201;-74
2022/06/08 01:07:05;;;;;;;10.70;10.10;;;;;;;14.75;83.84;92432.41;5975792;24;20211;-74
2022/06/08 01:09:35;;;;;;;10.97;10.27;;;;;;;14.73;84.69;92439.81;5983641;24;20166;-74
2022/06/08 01:12:08;;;;;;;9.60;9.10;;;;;;;14.59;85.25;92436.53;5975957;24;20222;-74
2022/06/08 01:14:34;;;;;;;9.93;9.33;;;;;;;14.71;84.48;92442.00;5983756;24;20164;-74
2022/06/08 01:17:07;;;;;;;11.03;10.37;;;;;;;14.62;85.03;92443.81;5975820;24;20205;-74
2022/06/08 01:19:38;;;;;;;10.97;10.33;;;;;;;14.45;84.64;92419.06;5983620;24;20205;-75
2022/06/08 01:22:06;;;;;;;10.80;10.20;;;;;;;14.66;84.57;92429.78;5975757;24;20211;-75
2022/06/08 01:24:33;;;;;;;10.63;10.00;;;;;;;14.66;84.46;92436.88;5949796;24;20191;-75
2022/06/08 01:27:11;;;;;;;10.83;10.20;;;;;;;14.57;85.44;92425.59;5975833;24;20901;-75
2022/06/08 01:30:04;;;;;;;11.20;10.40;;;;;;;14.46;86.46;92428.50;5983440;24;20159;-73
2022/06/08 01:33:01;;;;;;;10.20;9.63;;;;;;;14.35;86.29;92414.09;5973851;24;20215;-74
2022/06/08 01:35:38;;;;;;;10.57;9.97;;;;;;;14.43;85.87;92425.69;5981737;24;20167;-75
2022/06/08 01:38:13;;;;;;;10.80;10.10;;;;;;;14.39;85.17;92425.56;5983475;24;20318;-75
2022/06/08 01:41:02;;;;;;;11.43;10.63;;;;;;;14.46;85.10;92425.88;5980824;24;20666;-75
2022/06/08 01:43:37;;;;;;;10.33;9.83;;;;;;;14.36;85.45;92420.91;5983306;24;20163;-75
2022/06/08 01:46:05;;;;;;;10.57;10.07;;;;;;;14.25;85.92;92430.16;5979202;24;20215;-75
2022/06/08 01:49:12;;;;;;;10.33;9.63;;;;;;;14.26;85.75;92429.06;5982811;24;20160;-75
2022/06/08 01:52:48;;;;;;;10.13;9.53;;;;;;;14.13;85.97;92429.91;5942507;24;20279;-75
2022/06/08 01:55:39;;;;;;;10.50;9.97;;;;;;;14.13;86.16;92431.78;5835794;24;20167;-75
2022/06/08 01:58:07;;;;;;;10.17;9.67;;;;;;;14.13;86.11;92440.41;5844101;24;20174;-75
2022/06/08 02:00:39;;;;;;;10.50;10.00;;;;;;;14.13;86.04;92426.53;5932902;24;20235;-75
2022/06/08 02:03:28;;;;;;;10.03;9.53;;;;;;;14.01;85.89;92421.84;5983429;24;20179;-75
2022/06/08 02:06:07;;;;;;;11.47;10.80;;;;;;;14.08;85.43;92424.03;5948648;24;20215;-73
2022/06/08 02:08:57;;;;;;;10.27;9.67;;;;;;;13.98;85.79;92422.44;5950094;24;20195;-74
2022/06/08 02:11:34;;;;;;;9.63;9.13;;;;;;;14.03;86.00;92434.66;5977492;24;20232;-74
2022/06/08 02:14:07;;;;;;;11.33;10.30;;;;;;;13.73;87.77;92401.34;5983081;24;20205;-72
2022/06/08 02:17:21;;;;;;;9.07;8.57;;;;;;;13.97;86.88;92415.66;5976861;24;20237;-76
2022/06/08 02:19:56;;;;;;;9.97;9.47;;;;;;;13.79;86.96;92416.66;5939331;24;20171;-75
2022/06/08 02:22:37;;;;;;;10.60;10.00;;;;;;;13.71;86.53;92393.75;5973883;24;20211;-75
2022/06/08 02:25:25;;;;;;;10.43;9.87;;;;;;;13.79;86.43;92400.91;5982421;24;20183;-75
2022/06/08 02:28:25;;;;;;;11.23;10.63;;;;;;;13.82;87.11;92416.03;5972580;24;20211;-75
2022/06/08 02:31:13;;;;;;;12.23;11.43;;;;;;;13.85;86.26;92404.94;5963275;24;20216;-79
2022/06/08 02:36:40;;;;;;;19.23;10.60;;;;;;;14.15;85.82;92426.97;5977079;24;20222;-79
2022/06/08 02:39:13;;;;;;;10.93;10.20;;;;;;;14.02;85.83;92420.75;5983679;24;20188;-78
2022/06/08 02:41:42;;;;;;;10.23;9.73;;;;;;;14.09;85.39;92423.72;5973273;24;20230;-79
2022/06/08 02:44:13;;;;;;;10.77;10.07;;;;;;;13.90;86.23;92423.19;5982423;24;20171;-78
2022/06/08 02:46:58;;;;;;;10.73;10.00;;;;;;;13.85;86.51;92415.44;5975843;24;20222;-79
2022/06/08 02:49:24;;;;;;;11.27;10.57;;;;;;;13.57;87.30;92408.06;5981684;24;20171;-81
2022/06/08 02:51:51;;;;;;;10.70;10.10;;;;;;;13.86;86.65;92417.00;5971821;24;20241;-78
2022/06/08 02:54:21;;;;;;;10.33;9.63;;;;;;;13.99;85.59;92413.47;5973432;24;20588;-79
2022/06/08 02:57:11;;;;;;;10.93;10.33;;;;;;;14.14;84.74;92412.31;5972202;24;20211;-79
2022/06/08 02:59:40;;;;;;;11.63;11.03;;;;;;;14.73;82.38;92419.56;5947494;24;20174;-79
2022/06/08 03:02:14;;;;;;;9.80;9.30;;;;;;;15.39;78.96;92416.47;5946952;24;20211;-78
2022/06/08 03:04:53;;;;;;;10.87;10.00;;;;;;;16.11;75.02;92426.97;5981277;24;20194;-78
2022/06/08 03:07:23;;;;;;;9.97;9.37;;;;;;;17.00;71.39;92416.09;5972061;24;20233;-82
2022/06/08 03:09:50;;;;;;;9.73;9.23;;;;;;;18.02;67.53;92441.59;5981597;24;20215;-79
2022/06/08 03:12:26;;;;;;;9.83;9.33;;;;;;;19.34;62.02;92454.06;5947500;24;20243;-80
2022/06/08 03:14:52;;;;;;;9.47;9.07;;;;;;;20.12;58.86;92452.41;5982565;24;20148;-79
2022/06/08 03:17:25;;;;;;;9.07;8.67;;;;;;;20.62;57.32;92465.78;5973621;24;20240;-79
2022/06/08 03:19:50;;;;;;;9.23;8.73;;;;;;;19.65;58.56;92463.97;5982469;24;20162;-78
2022/06/08 03:22:16;;;;;;;10.40;9.60;;;;;;;19.57;59.41;92463.03;5972854;24;20208;-79
2022/06/08 03:24:43;;;;;;;10.37;9.57;;;;;;;20.13;58.99;92469.06;5982112;24;20188;-79
2022/06/08 03:27:09;;;;;;;10.23;9.63;;;;;;;19.76;61.07;92470.34;5974288;24;20219;-79
2022/06/08 03:29:34;;;;;;;8.53;8.00;;;;;;;20.29;59.05;92461.94;5982608;24;20221;-79
2022/06/08 03:32:00;;;;;;;10.13;9.33;;;;;;;20.45;58.07;92466.13;5974979;24;20211;-79
2022/06/08 03:34:26;;;;;;;9.50;8.90;;;;;;;20.50;57.85;92457.91;5982338;24;20161;-78
2022/06/08 03:36:51;;;;;;;9.17;8.67;;;;;;;20.87;57.30;92473.56;5975347;24;20213;-80
2022/06/08 03:39:17;;;;;;;9.40;8.98;;;;;;;20.60;58.01;92468.03;5982639;24;20177;-79
2022/06/08 03:41:46;;;;;;;10.90;9.40;;;;;;;20.82;57.37;92468.50;5948323;24;20229;-79
2022/06/08 03:44:12;;;;;;;9.97;9.37;;;;;;;20.59;58.21;92476.31;5982232;24;20182;-79
2022/06/08 03:46:43;;;;;;;10.70;9.90;;;;;;;19.50;61.09;92441.66;5972187;24;20278;-82
2022/06/08 03:49:11;;;;;;;11.17;10.37;;;;;;;18.84;63.62;92461.59;5982174;24;20173;-73
2022/06/08 03:51:39;;;;;;;11.40;10.70;;;;;;;18.90;64.08;92458.41;5946100;24;20213;-73
2022/06/08 03:54:11;;;;;;;11.90;11.10;;;;;;;19.94;61.02;92459.09;5981351;24;20185;-71
2022/06/08 03:56:40;;;;;;;11.20;10.50;;;;;;;20.27;59.96;92464.91;5975530;24;20221;-72
2022/06/08 03:59:06;;;;;;;11.20;10.50;;;;;;;20.83;58.52;92454.13;5974426;24;20184;-71
2022/06/08 04:01:31;;;;;;;11.20;10.50;;;;;;;20.57;59.42;92466.06;5949104;24;20243;-69
2022/06/08 04:03:57;;;;;;;11.03;10.40;;;;;;;20.10;60.81;92459.91;5982886;24;20170;-69
2022/06/08 04:06:23;;;;;;;10.27;9.67;;;;;;;20.14;61.25;92458.13;5972933;24;20221;-69
2022/06/08 04:08:49;;;;;;;11.83;11.13;;;;;;;20.59;59.16;92442.59;5949944;24;20173;-70
2022/06/08 04:11:14;;;;;;;11.03;10.17;;;;;;;20.52;59.38;92455.69;5978901;24;20245;-74
2022/06/08 04:13:40;;;;;;;10.83;10.13;;;;;;;20.16;61.17;92452.50;5949584;24;20174;-83
2022/06/08 04:16:06;;;;;;;11.27;10.57;;;;;;;19.83;62.33;92460.69;5948569;24;20470;-70
2022/06/08 04:18:31;;;;;;;11.73;10.93;;;;;;;19.42;64.67;92444.44;5984080;24;20161;-70
2022/06/08 04:20:59;;;;;;;11.20;10.40;;;;;;;18.97;65.90;92432.16;5974046;24;20274;-70
2022/06/08 04:23:27;;;;;;;12.17;11.37;;;;;;;18.98;66.15;92451.44;5983854;24;20166;-71
2022/06/08 04:25:53;;;;;;;12.10;11.10;;;;;;;19.11;66.98;92455.63;5980013;24;20209;-70
2022/06/08 04:28:19;;;;;;;10.67;9.83;;;;;;;19.16;66.77;92448.22;5983974;24;20196;-71
2022/06/08 04:30:45;;;;;;;12.07;10.90;;;;;;;18.98;67.71;92446.94;5981332;24;20701;-71
2022/06/08 04:33:11;;;;;;;11.53;10.73;;;;;;;19.53;64.72;92435.69;5984038;24;20177;-70
2022/06/08 04:35:37;;;;;;;11.73;10.93;;;;;;;20.18;61.49;92407.88;5979703;24;20229;-70
2022/06/08 04:38:02;;;;;;;14.23;13.00;;;;;;;20.19;62.54;92431.38;5980806;24;20210;-74
2022/06/08 04:40:29;;;;;;;12.47;11.57;;;;;;;19.27;66.17;92442.47;5973893;24;20168;-74
2022/06/08 04:42:55;;;;;;;10.80;10.10;;;;;;;18.82;67.92;92432.84;5973773;24;20177;-74
2022/06/08 04:45:21;;;;;;;10.97;10.27;;;;;;;19.03;68.18;92438.78;5973129;24;20212;-70
2022/06/08 04:47:46;;;;;;;11.87;11.07;;;;;;;18.55;68.36;92438.03;5981954;24;20165;-69
2022/06/08 04:50:13;;;;;;;12.13;10.97;;;;;;;18.29;71.07;92440.22;5972494;24;20172;-70
2022/06/08 04:52:39;;;;;;;11.53;10.83;;;;;;;18.63;70.04;92442.47;5981808;24;20210;-69
2022/06/08 04:55:07;;;;;;;11.83;11.03;;;;;;;18.55;70.11;92440.69;5972426;24;20173;-72
2022/06/08 04:57:36;;;;;;;11.43;10.73;;;;;;;18.69;69.55;92435.84;5971907;24;20204;-71
2022/06/08 05:00:05;;;;;;;17.47;11.43;;;;;;;18.76;69.33;92436.81;5972490;24;20184;-71
2022/06/08 05:02:47;;;;;;;11.73;10.93;;;;;;;19.08;67.68;92448.34;5972021;24;20301;-75
2022/06/08 05:05:19;;;;;;;12.30;11.30;;;;;;;18.51;68.63;92431.88;5977409;24;20211;-77
2022/06/08 05:07:46;;;;;;;11.80;10.90;;;;;;;19.12;68.34;92439.41;5981807;24;20176;-75
2022/06/08 05:10:12;;;;;;;12.33;11.33;;;;;;;21.81;59.24;92456.25;5982236;24;20198;-74
2022/06/08 05:12:38;;;;;;;12.10;11.20;;;;;;;22.70;55.01;92440.75;5944557;24;20211;-72
2022/06/08 05:15:07;;;;;;;13.23;12.07;;;;;;;22.29;55.41;92452.97;5954208;24;20164;-73
2022/06/08 05:17:34;;;;;;;12.77;11.70;;;;;;;21.20;58.02;92442.09;5972140;24;20242;-72
2022/06/08 05:20:00;;;;;;;11.77;10.98;;;;;;;20.64;60.43;92445.00;5982858;24;20171;-73
2022/06/08 05:22:25;;;;;;;12.60;11.53;;;;;;;19.91;62.50;92443.09;5973397;24;20229;-69
2022/06/08 05:24:51;;;;;;;11.03;10.33;;;;;;;19.61;63.86;92452.53;5982745;24;20197;-73
2022/06/08 05:27:17;;;;;;;12.03;11.03;;;;;;;19.31;64.51;92454.72;5972562;24;20225;-73
2022/06/08 05:29:44;;;;;;;12.17;11.37;;;;;;;19.20;66.55;92453.63;5973154;24;20188;-73
2022/06/08 05:32:09;;;;;;;11.83;10.80;;;;;;;20.40;61.37;92455.78;5943627;24;20214;-72
2022/06/08 05:34:34;;;;;;;12.10;11.30;;;;;;;25.95;45.47;92469.28;5954533;24;20167;-73
2022/06/08 05:37:00;;;;;;;9.95;9.23;;;;;;;28.72;38.42;92475.59;5946906;24;20248;-72
2022/06/08 05:39:25;;;;;;;9.82;9.23;;;;;;;31.97;31.85;92494.34;5953905;24;20200;-73
2022/06/08 05:41:51;;;;;;;10.20;9.13;;;;;;;33.81;29.00;92508.91;5966516;24;20216;-73
2022/06/08 05:44:19;;;;;;;8.90;8.20;;;;;;;33.89;28.58;92504.88;5981820;24;20216;-72
2022/06/08 05:46:44;;;;;;;8.75;8.25;;;;;;;33.87;28.04;92503.75;5975650;24;20207;-72
2022/06/08 05:49:10;;;;;;;8.23;7.78;;;;;;;32.37;30.00;92508.69;5982298;24;20193;-72
2022/06/08 05:51:35;;;;;;;9.05;8.20;;;;;;;32.10;30.93;92484.47;5972315;24;20239;-73
2022/06/08 05:54:01;;;;;;;8.43;7.85;;;;;;;36.00;25.53;92495.13;5982457;24;20234;-75
2022/06/08 05:56:26;;;;;;;8.00;7.57;;;;;;;32.81;29.76;92491.16;5976952;24;20195;-72
2022/06/08 05:58:52;;;;;;;8.00;7.53;;;;;;;33.40;28.99;92492.53;5982016;24;21200;-75
2022/06/08 06:01:17;;;;;;;8.00;7.50;;;;;;;32.98;29.33;92482.69;5977123;24;20215;-76
2022/06/08 06:03:43;;;;;;;8.63;7.95;;;;;;;31.77;31.78;92493.53;5981788;24;20160;-75
2022/06/08 06:06:08;;;;;;;7.55;6.95;;;;;;;34.58;27.33;92497.97;5977585;24;20215;-75
2022/06/08 06:08:34;;;;;;;7.35;6.95;;;;;;;32.48;29.44;92493.78;5982334;24;20163;-75
2022/06/08 06:10:59;;;;;;;8.27;7.78;;;;;;;29.66;34.13;92485.63;5971977;24;20203;-75
2022/06/08 06:13:26;;;;;;;8.63;7.35;;;;;;;32.21;30.89;92485.03;5981872;24;20176;-78
2022/06/08 06:15:51;;;;;;;7.70;7.30;;;;;;;34.59;26.01;92483.22;5978856;24;20208;-75
2022/06/08 06:18:17;;;;;;;7.57;7.13;;;;;;;35.55;24.37;92496.19;5982305;24;20170;-73
2022/06/08 06:20:43;;;;;;;7.50;7.10;;;;;;;32.32;28.02;92479.41;5949403;24;20216;-78
2022/06/08 06:23:08;;;;;;;7.85;6.90;;;;;;;34.80;25.91;92476.41;5953975;24;20161;-71
2022/06/08 06:25:33;;;;;;;7.93;7.32;;;;;;;36.50;23.93;92482.09;5947510;24;20263;-73
2022/06/08 06:27:59;;;;;;;7.85;7.20;;;;;;;36.58;23.48;92488.78;5981752;24;20200;-74
2022/06/08 06:30:25;;;;;;;7.50;7.00;;;;;;;36.07;24.61;92481.28;5980777;24;20227;-73
2022/06/08 06:32:50;;;;;;;7.97;7.38;;;;;;;37.46;22.65;92479.25;5981712;24;20187;-75
2022/06/08 06:35:22;;;;;;;7.35;6.85;;;;;;;36.64;22.67;92481.56;5980985;24;20929;-72
2022/06/08 06:37:49;;;;;;;7.75;6.97;;;;;;;36.48;22.96;92486.47;5981887;24;20167;-75
2022/06/08 06:40:14;;;;;;;7.40;7.00;;;;;;;33.24;26.49;92472.78;5947342;24;20160;-73
2022/06/08 06:42:41;;;;;;;7.55;7.00;;;;;;;31.82;29.62;92466.06;5981989;24;20212;-75
2022/06/08 06:45:07;;;;;;;7.40;6.80;;;;;;;30.10;31.71;92470.53;5982139;24;20188;-74
2022/06/08 06:47:33;;;;;;;8.88;8.05;;;;;;;27.42;37.18;92449.22;5971694;24;20211;-77
2022/06/08 06:49:58;;;;;;;8.93;8.13;;;;;;;27.15;37.59;92440.03;5982095;24;20171;-75
2022/06/08 06:52:24;;;;;;;8.20;7.60;;;;;;;26.29;39.69;92440.38;5972560;24;20750;-73
2022/06/08 06:54:49;;;;;;;9.07;8.45;;;;;;;24.83;41.75;92429.25;5981914;24;20177;-73
2022/06/08 06:57:15;;;;;;;8.75;8.05;;;;;;;24.81;43.20;92438.78;5972985;24;20208;-75
2022/06/08 06:59:41;;;;;;;10.25;9.45;;;;;;;24.07;43.79;92440.75;5981256;24;20159;-73
2022/06/08 07:02:18;;;;;;;9.50;8.80;;;;;;;23.27;46.24;92395.97;5948011;24;20310;-73
2022/06/08 07:04:43;;;;;;;8.77;8.35;;;;;;;23.04;46.27;92416.56;5981566;24;20181;-74
2022/06/08 07:07:11;;;;;;;9.20;8.70;;;;;;;22.89;49.29;92419.38;5973830;24;20239;-73
2022/06/08 07:09:37;;;;;;;9.48;8.95;;;;;;;23.18;48.09;92427.41;5982332;24;20190;-73
2022/06/08 07:12:03;;;;;;;9.45;8.75;;;;;;;22.55;49.61;92426.47;5974060;24;20213;-73
2022/06/08 07:14:29;;;;;;;10.15;9.55;;;;;;;23.01;48.17;92432.50;5981553;24;20170;-74
2022/06/08 07:16:54;;;;;;;10.10;9.40;;;;;;;22.84;48.19;92433.00;5974527;24;20229;-74
2022/06/08 07:19:20;;;;;;;10.23;9.20;;;;;;;22.99;47.05;92429.44;5981480;24;20243;-74
2022/06/08 07:21:45;;;;;;;9.25;8.65;;;;;;;22.44;51.74;92428.16;5974853;24;20674;-73
2022/06/08 07:24:17;;;;;;;9.40;8.80;;;;;;;23.21;48.04;92428.59;5981938;24;20190;-73
2022/06/08 07:26:42;;;;;;;10.20;9.30;;;;;;;23.12;49.43;92428.84;5975496;24;20209;-73
2022/06/08 07:29:07;;;;;;;9.77;9.07;;;;;;;22.31;52.47;92437.44;5981765;24;20158;-73
2022/06/08 07:31:33;;;;;;;8.32;7.82;;;;;;;23.31;46.86;92436.78;5976443;24;20205;-73
2022/06/08 07:33:58;;;;;;;9.60;9.00;;;;;;;23.05;47.46;92431.41;5981610;24;20187;-74
2022/06/08 07:36:24;;;;;;;9.25;8.63;;;;;;;23.10;46.85;92433.78;5972718;24;20221;-74
2022/06/08 07:38:49;;;;;;;9.68;8.95;;;;;;;22.77;48.67;92438.97;5981786;24;20166;-73
2022/06/08 07:41:15;;;;;;;9.85;9.25;;;;;;;22.72;48.50;92441.97;5976495;24;20204;-76
2022/06/08 07:43:40;;;;;;;9.75;9.15;;;;;;;22.76;48.69;92442.00;5981959;24;20166;-75
2022/06/08 07:46:06;;;;;;;9.18;8.55;;;;;;;22.83;48.48;92448.22;5978199;24;20209;-74
2022/06/08 07:51:17;;;;;;;9.30;8.80;;;;;;;23.07;48.47;92452.34;5977393;24;20220;-74
2022/06/08 07:53:42;;;;;;;9.98;9.35;;;;;;;22.61;49.71;92450.88;5948401;24;20180;-76
2022/06/08 07:56:08;;;;;;;10.00;9.30;;;;;;;23.08;48.43;92454.66;5978189;24;20217;-74
2022/06/08 07:58:34;;;;;;;8.88;8.38;;;;;;;22.83;48.45;92448.22;5982187;24;20191;-74
2022/06/08 08:00:59;;;;;;;9.75;9.07;;;;;;;22.20;49.40;92441.81;5978270;24;20213;-75
2022/06/08 08:03:25;;;;;;;10.27;9.57;;;;;;;22.89;47.51;92420.16;5970082;24;20175;-76
2022/06/08 08:05:51;;;;;;;9.95;9.20;;;;;;;22.99;48.79;92446.16;5978230;24;20222;-75
2022/06/08 08:08:17;;;;;;;11.25;10.23;;;;;;;22.74;47.43;92436.28;5981365;24;20166;-75
2022/06/08 08:10:44;;;;;;;9.55;9.05;;;;;;;22.61;49.74;92451.66;5979260;24;20211;-76
2022/06/08 08:13:11;;;;;;;11.10;10.10;;;;;;;22.63;48.91;92444.06;5980886;24;20176;-76
2022/06/08 08:15:37;;;;;;;9.95;9.27;;;;;;;22.60;50.08;92446.69;5978883;24;20232;-75
2022/06/08 08:18:03;;;;;;;11.00;10.10;;;;;;;22.78;48.14;92434.44;5980035;24;20166;-74
2022/06/08 08:20:30;;;;;;;10.00;9.30;;;;;;;22.62;49.70;92426.59;5946984;24;20185;-76
2022/06/08 08:22:57;;;;;;;10.50;9.57;;;;;;;22.49;52.42;92424.44;5947308;24;20214;-78
2022/06/08 08:25:23;;;;;;;10.65;9.95;;;;;;;22.13;50.60;92425.75;5979358;24;20201;-78
2022/06/08 08:27:49;;;;;;;10.95;9.85;;;;;;;22.48;48.52;92428.22;5981080;24;20235;-73
2022/06/08 08:30:18;;;;;;;10.57;9.77;;;;;;;22.65;48.43;92425.09;5980872;24;20665;-74
2022/06/08 08:32:44;;;;;;;11.15;10.35;;;;;;;22.16;49.48;92420.47;5948440;24;20181;-74
2022/06/08 08:35:11;;;;;;;9.45;8.95;;;;;;;22.93;47.99;92410.31;5981177;24;20163;-74
2022/06/08 08:37:37;;;;;;;9.55;8.82;;;;;;;23.20;47.40;92409.19;5971418;24;20248;-75
2022/06/08 08:40:06;;;;;;;10.45;9.75;;;;;;;22.82;47.69;92406.72;5981049;24;20220;-73
2022/06/08 08:42:31;;;;;;;10.13;9.43;;;;;;;22.34;48.02;92388.84;5971314;24;20210;-75
2022/06/08 08:44:57;;;;;;;9.77;9.13;;;;;;;22.63;46.72;92411.38;5981913;24;20190;-74
2022/06/08 08:47:23;;;;;;;10.75;9.57;;;;;;;22.75;47.00;92408.53;5944008;24;20218;-74
2022/06/08 08:50:14;;;;;;;9.90;9.25;;;;;;;22.34;47.64;92418.09;5954527;24;20171;-72
2022/06/08 08:53:02;;;;;;;9.90;9.20;;;;;;;21.90;47.52;92412.41;5973316;24;20253;-74
2022/06/08 08:55:36;;;;;;;9.35;8.70;;;;;;;22.72;45.35;92403.91;5965429;24;20175;-75
2022/06/08 08:58:07;;;;;;;9.45;8.85;;;;;;;23.26;45.39;92407.78;5983055;24;20191;-73
2022/06/08 09:01:09;;;;;;;9.55;8.82;;;;;;;23.47;44.62;92392.03;5981122;24;20219;-71
2022/06/08 09:03:45;;;;;;;8.82;8.20;;;;;;;23.65;46.38;92392.25;5927311;24;20255;-73
2022/06/08 09:06:17;;;;;;;10.40;9.57;;;;;;;23.53;43.02;92390.56;5912030;24;20321;-72
2022/06/08 09:08:46;;;;;;;8.85;8.45;;;;;;;23.40;42.94;92391.97;5900021;24;20175;-73
2022/06/08 09:11:22;;;;;;;9.00;8.40;;;;;;;22.95;44.17;92394.75;5907459;24;20214;-74
2022/06/08 09:13:54;;;;;;;8.98;8.38;;;;;;;22.76;44.47;92399.41;5927288;24;20185;-74
2022/06/08 09:16:37;;;;;;;9.02;8.57;;;;;;;23.36;45.95;92391.13;5922531;24;20214;-74
2022/06/08 09:19:20;;;;;;;9.85;9.15;;;;;;;23.12;44.78;92394.22;5927516;24;20223;-77
2022/06/08 09:21:46;;;;;;;9.90;9.30;;;;;;;23.27;47.09;92385.31;5903033;24;20819;-74
2022/06/08 09:24:41;;;;;;;10.23;9.52;;;;;;;23.59;44.33;92396.38;5899796;24;20179;-74
2022/06/08 09:27:33;;;;;;;10.90;9.95;;;;;;;23.24;44.36;92395.88;5904773;24;20220;-75
2022/06/08 09:29:59;;;;;;;9.93;9.32;;;;;;;23.33;43.65;92389.19;5926768;24;20190;-74
2022/06/08 09:32:29;;;;;;;9.27;8.60;;;;;;;23.39;44.74;92384.34;5918181;24;20241;-75
2022/06/08 09:34:59;;;;;;;9.90;9.23;;;;;;;23.56;44.21;92373.13;5926637;24;20187;-73
2022/06/08 09:37:26;;;;;;;9.45;8.85;;;;;;;23.76;42.32;92369.13;5892893;24;20219;-73
2022/06/08 09:40:01;;;;;;;9.60;8.75;;;;;;;23.98;42.02;92388.81;5899904;24;20482;-73
2022/06/08 09:42:36;;;;;;;9.57;8.65;;;;;;;23.73;41.75;92377.88;5914409;24;20285;-73
2022/06/08 09:45:13;;;;;;;9.13;8.63;;;;;;;23.49;41.52;92383.69;5926831;24;20202;-74
2022/06/08 09:51:27;;;;;;;8.82;8.32;;;;;;;23.05;44.00;92369.41;5923765;24;20234;-73
2022/06/08 09:54:22;;;;;;;8.82;8.32;;;;;;;23.60;42.92;92361.34;5926818;24;20170;-73
2022/06/08 09:57:02;;;;;;;8.85;8.23;;;;;;;24.00;42.95;92378.56;5902299;24;20260;-73
2022/06/08 09:59:39;;;;;;;8.40;7.90;;;;;;;24.16;41.53;92355.06;5899736;24;20216;-77
2022/06/08 10:02:46;;;;;;;9.10;8.60;;;;;;;24.49;41.78;92361.09;5945963;24;20273;-74
2022/06/08 10:05:17;;;;;;;8.57;8.18;;;;;;;23.96;44.09;92332.38;5934896;24;20213;-75
2022/06/08 10:08:11;;;;;;;8.48;8.00;;;;;;;24.30;39.36;92355.97;5948341;24;20711;-75
2022/06/08 10:10:58;;;;;;;8.48;7.97;;;;;;;24.37;40.23;92360.59;5980583;24;20214;-75
2022/06/08 10:13:42;;;;;;;8.73;8.23;;;;;;;24.23;41.18;92358.59;5982220;24;20168;-76
2022/06/08 10:16:16;;;;;;;8.02;7.63;;;;;;;24.06;40.86;92353.09;5977456;24;21063;-82
2022/06/08 10:18:47;;;;;;;8.75;8.18;;;;;;;24.49;40.04;92350.41;5948022;24;20172;-75
2022/06/08 10:21:20;;;;;;;8.00;7.60;;;;;;;24.36;39.41;92345.72;5977648;24;20214;-76
2022/06/08 10:24:14;;;;;;;8.23;7.72;;;;;;;24.06;41.11;92343.19;5982215;24;20157;-78
2022/06/08 10:27:02;;;;;;;8.52;8.02;;;;;;;24.04;42.03;92334.78;5975706;24;20265;-77
2022/06/08 10:29:43;;;;;;;8.32;7.85;;;;;;;24.17;41.48;92335.28;5948167;24;20171;-76
2022/06/08 10:32:32;;;;;;;8.10;7.60;;;;;;;24.51;42.01;92344.69;5973853;24;20240;-76
2022/06/08 10:35:01;;;;;;;8.55;7.75;;;;;;;24.65;42.44;92342.13;5948245;24;20278;-76
2022/06/08 10:37:40;;;;;;;8.85;7.95;;;;;;;24.68;39.84;92339.53;5972718;24;20239;-75
2022/06/08 10:40:15;;;;;;;7.97;7.57;;;;;;;24.13;40.80;92342.47;5981573;24;20885;-76
2022/06/08 10:42:43;;;;;;;8.77;8.05;;;;;;;23.87;42.42;92332.69;5972261;24;20276;-78
2022/06/08 10:45:24;;;;;;;8.25;7.70;;;;;;;24.04;42.77;92334.00;5981477;24;20196;-74
2022/06/08 10:48:03;;;;;;;8.57;8.07;;;;;;;24.52;41.54;92332.88;5944509;24;20199;-77
2022/06/08 10:50:38;;;;;;;9.02;8.52;;;;;;;24.42;41.16;92330.91;5954888;24;20158;-75
2022/06/08 10:56:34;;;;;;;8.32;7.70;;;;;;;24.71;39.79;92338.78;5977147;24;20223;-72
2022/06/08 10:59:03;;;;;;;8.43;8.02;;;;;;;24.08;40.28;92340.16;5981431;24;20184;-73
2022/06/08 11:01:53;;;;;;;8.50;8.00;;;;;;;23.20;43.85;92294.63;5976035;24;20261;-73
2022/06/08 11:04:34;;;;;;;9.20;8.60;;;;;;;23.68;43.33;92336.31;5981256;24;20214;-72
2022/06/08 11:07:07;;;;;;;8.35;7.90;;;;;;;24.03;43.55;92330.59;5942360;24;20231;-73
2022/06/08 11:09:32;;;;;;;9.05;8.45;;;;;;;24.43;40.62;92324.41;5953855;24;20210;-73
2022/06/08 11:12:13;;;;;;;8.48;7.95;;;;;;;24.48;41.12;92332.09;5946881;24;20279;-72
2022/06/08 11:14:44;;;;;;;8.55;8.15;;;;;;;24.26;45.10;92320.50;5953304;24;20171;-72
2022/06/08 11:17:22;;;;;;;8.55;8.15;;;;;;;24.42;42.42;92318.31;5941310;24;20217;-71
2022/06/08 11:19:50;;;;;;;8.30;7.90;;;;;;;24.80;40.33;92317.06;5981741;24;20164;-72
2022/06/08 11:22:23;;;;;;;8.45;8.05;;;;;;;24.58;40.42;92326.03;5972985;24;20277;-72
2022/06/08 11:24:53;;;;;;;9.00;8.30;;;;;;;24.62;40.17;92316.16;5981142;24;20190;-73
2022/06/08 11:27:29;;;;;;;9.25;8.55;;;;;;;24.39;41.54;92318.31;5972396;24;20300;-70
2022/06/08 11:29:58;;;;;;;9.02;8.48;;;;;;;24.37;41.58;92304.56;5981683;24;20162;-70
2022/06/08 11:32:40;;;;;;;8.27;7.78;;;;;;;24.42;39.21;92301.56;5972625;24;20295;-72
2022/06/08 11:35:30;;;;;;;9.20;8.70;;;;;;;23.92;40.26;92299.59;5981516;24;20174;-72
2022/06/08 11:38:15;;;;;;;10.50;9.48;;;;;;;23.72;44.25;92297.13;5971555;24;20186;-72
2022/06/08 11:40:42;;;;;;;8.68;8.18;;;;;;;23.94;41.96;92271.41;5979428;24;20213;-72
2022/06/08 11:43:10;;;;;;;8.88;8.32;;;;;;;24.51;43.70;92288.63;5947628;24;20609;-70
2022/06/08 11:45:38;;;;;;;9.48;8.77;;;;;;;24.66;42.76;92290.28;5979130;24;20214;-73
2022/06/08 11:48:44;;;;;;;9.18;8.43;;;;;;;25.07;40.93;92284.38;5981344;24;20195;-73
2022/06/08 11:51:09;;;;;;;9.40;8.90;;;;;;;24.64;39.58;92282.63;5969937;24;20210;-73
2022/06/08 11:53:38;;;;;;;8.32;7.90;;;;;;;24.52;40.92;92279.47;5947306;24;20170;-73
2022/06/08 11:56:22;;;;;;;8.63;8.23;;;;;;;24.86;40.76;92272.84;5977208;24;20231;-74
2022/06/08 11:58:52;;;;;;;8.95;8.45;;;;;;;25.02;40.28;92266.06;5980981;24;20200;-74